Terminal Aerodrome Forecast
Issued by NWS

Current Version | Previous Version | Text Only | Print | Product List | Glossary Off
Versions: 1 2 3 4 5 6 7 8 9 10 11 12 13 14 15 16

834
FTUS41 KPBZ 050858 AAB
TAFMGW
TAF AMD
KMGW 050858Z 0509/0606 23009G15KT P6SM OVC015
     FM051400 28008KT P6SM BKN020
     FM051700 29005KT P6SM BKN040
     FM060200 09003KT P6SM BKN200=

USA.gov is the U.S. government's official web portal to all federal, state and local government web resources and services.